Time;durP1;ratioP1;P1;durP2;ratioP2;P2;SDS_P1;SDS_P2;PMS_P1;PMS_P2;Temp;Humidity;BMP_temperature;BMP_pressure;BME280_temperature;BME280_humidity;BME280_pressure;Samples;Min_cycle;Max_cycle;Signal;HPM_P1;HPM_P2
2022/04/27 00:01:35;;;;;;;;;7.00;7.00;;;;;13.32;57.70;99231.53;5054660;28;45325;-64
2022/04/27 00:04:00;;;;;;;;;10.00;9.75;;;;;13.30;57.57;99238.69;5054018;28;45380;-64
2022/04/27 00:06:26;;;;;;;;;10.25;9.50;;;;;13.25;57.80;99235.38;5054586;28;45461;-64
2022/04/27 00:08:51;;;;;;;;;11.75;11.75;;;;;13.25;57.89;99241.53;5044428;28;45466;-64
2022/04/27 00:11:26;;;;;;;;;13.25;12.00;;;;;13.23;57.98;99235.50;5052515;28;45516;-64
2022/04/27 00:13:51;;;;;;;;;11.25;10.00;;;;;13.22;57.99;99232.91;5052724;28;45390;-64
2022/04/27 00:16:17;;;;;;;;;13.50;10.75;;;;;13.21;58.21;99239.13;5054082;28;45385;-64
2022/04/27 00:18:42;;;;;;;;;10.50;10.50;;;;;13.20;58.31;99240.06;5049159;28;45918;-64
2022/04/27 00:21:08;;;;;;;;;9.75;9.75;;;;;13.18;58.27;99234.84;5053715;28;45398;-64
2022/04/27 00:23:34;;;;;;;;;13.25;10.25;;;;;13.16;58.67;99235.84;5050967;28;45441;-64
2022/04/27 00:25:59;;;;;;;;;13.25;10.75;;;;;13.12;58.83;99242.19;5053059;28;45527;-64
2022/04/27 00:28:25;;;;;;;;;5.25;5.25;;;;;13.10;59.05;99246.69;5049469;28;46519;-64
2022/04/27 00:30:50;;;;;;;;;10.75;10.75;;;;;13.08;59.25;99248.56;5053825;28;45546;-64
2022/04/27 00:33:26;;;;;;;;;11.00;9.50;;;;;13.06;59.24;99243.34;5050135;28;45462;-64
2022/04/27 00:35:52;;;;;;;;;10.50;9.50;;;;;13.02;59.23;99239.13;5049649;28;45425;-64
2022/04/27 00:38:18;;;;;;;;;11.00;9.50;;;;;12.99;59.16;99249.88;5048582;28;45553;-64
2022/04/27 00:40:44;;;;;;;;;12.75;12.75;;;;;12.97;59.31;99254.38;5054051;28;45788;-64
2022/04/27 00:43:45;;;;;;;;;11.50;10.50;;;;;12.93;59.25;99248.34;5050706;28;45401;-64
2022/04/27 00:46:11;;;;;;;;;10.00;9.75;;;;;12.90;59.14;99251.16;4974328;28;45526;-64
2022/04/27 00:48:39;;;;;;;;;11.50;11.50;;;;;12.87;58.97;99243.38;5039341;28;46352;-64
2022/04/27 00:51:06;;;;;;;;;15.25;10.50;;;;;12.86;58.93;99243.44;5056723;28;45454;-64
2022/04/27 00:53:31;;;;;;;;;11.00;10.50;;;;;12.83;59.04;99251.53;5054158;28;45406;-64
2022/04/27 00:55:58;;;;;;;;;9.00;8.25;;;;;12.82;59.06;99249.81;5056500;28;45451;-64
2022/04/27 00:58:25;;;;;;;;;10.00;9.50;;;;;12.79;59.33;99257.88;5057046;28;45404;-64
2022/04/27 01:00:51;;;;;;;;;10.50;10.25;;;;;12.77;59.33;99254.44;5053707;28;45441;-64
2022/04/27 01:03:17;;;;;;;;;9.50;9.00;;;;;12.74;59.34;99257.22;5056256;28;45302;-64
2022/04/27 01:05:43;;;;;;;;;11.00;8.25;;;;;12.71;59.72;99258.25;5056820;28;45413;-64
2022/04/27 01:08:21;;;;;;;;;11.75;10.75;;;;;12.69;59.79;99253.97;5055850;28;46369;-64
2022/04/27 01:10:48;;;;;;;;;10.00;9.00;;;;;12.65;59.89;99255.88;5056256;28;45510;-64
2022/04/27 01:13:15;;;;;;;;;10.50;10.50;;;;;12.63;59.65;99249.81;5056600;28;45303;-64
2022/04/27 01:15:41;;;;;;;;;11.25;9.00;;;;;12.62;59.74;99250.72;5057236;28;45502;-64
2022/04/27 01:18:09;;;;;;;;;15.00;12.00;;;;;12.60;59.67;99252.59;5051104;28;46352;-64
2022/04/27 01:20:38;;;;;;;;;11.00;9.25;;;;;12.59;59.72;99254.38;5056219;28;45615;-64
2022/04/27 08:12:27;;;;;;;;;17.00;17.00;;;;;14.17;56.67;99391.53;4994925;28;75093;-60
2022/04/27 08:14:53;;;;;;;;;13.50;12.25;;;;;14.24;56.09;99392.91;5005758;28;45472;-61
2022/04/27 08:17:18;;;;;;;;;13.75;11.50;;;;;14.31;56.08;99388.16;5016691;28;45231;-61
2022/04/27 08:19:43;;;;;;;;;15.75;13.50;;;;;14.35;55.87;99392.38;4994046;28;45487;-61
2022/04/27 08:22:09;;;;;;;;;18.75;15.25;;;;;14.43;55.64;99395.50;5017069;28;45434;-60
2022/04/27 08:24:40;;;;;;;;;21.00;16.50;;;;;14.51;55.96;99405.75;5010531;28;45371;-60
2022/04/27 08:27:05;;;;;;;;;10.75;10.75;;;;;14.58;55.45;99401.81;5021584;28;45441;-60
2022/04/27 08:29:30;;;;;;;;;13.75;12.25;;;;;14.65;55.23;99400.56;5013639;28;45531;-60
2022/04/27 08:32:05;;;;;;;;;13.50;13.50;;;;;14.73;55.23;99403.69;5013259;28;46213;-60
2022/04/27 08:34:30;;;;;;;;;16.00;16.00;;;;;14.80;54.96;99402.44;5012886;28;45378;-61
2022/04/27 08:36:56;;;;;;;;;18.00;13.25;;;;;14.87;54.77;99398.53;5018362;28;45547;-60
2022/04/27 08:39:21;;;;;;;;;16.25;16.00;;;;;14.93;54.41;99392.00;5012636;28;45525;-60
2022/04/27 08:41:47;;;;;;;;;15.25;14.00;;;;;14.97;54.81;99396.22;5019866;28;46201;-60
2022/04/27 08:44:12;;;;;;;;;18.75;18.00;;;;;15.01;54.06;99390.66;5013589;28;45509;-60
2022/04/27 08:46:38;;;;;;;;;15.50;15.50;;;;;15.07;54.21;99392.16;5015758;28;45529;-60
2022/04/27 08:49:09;;;;;;;;;16.00;14.25;;;;;15.15;54.29;99384.59;5014193;28;45465;-60
2022/04/27 08:51:36;;;;;;;;;16.25;16.25;;;;;15.20;53.88;99382.56;5024103;28;46542;-60
2022/04/27 08:54:02;;;;;;;;;15.50;14.50;;;;;15.25;53.88;99383.16;5014425;28;45385;-61
2022/04/27 08:56:30;;;;;;;;;17.75;14.75;;;;;15.32;53.93;99387.19;5016611;28;45269;-60
2022/04/27 08:58:55;;;;;;;;;12.00;12.00;;;;;15.39;53.73;99387.72;5006009;28;45688;-59
2022/04/27 09:01:20;;;;;;;;;13.25;13.00;;;;;15.49;53.41;99385.41;5016264;28;47572;-59
2022/04/27 09:03:46;;;;;;;;;15.00;15.00;;;;;15.57;53.04;99378.75;4990082;28;45256;-59
2022/04/27 09:06:15;;;;;;;;;19.75;18.25;;;;;15.63;52.79;99381.06;5025558;28;45458;-59
2022/04/27 09:08:45;;;;;;;;;13.25;10.50;;;;;15.71;52.30;99383.28;5016374;28;45391;-59
2022/04/27 09:11:11;;;;;;;;;11.50;10.50;;;;;15.77;52.23;99374.94;5016025;28;46252;-60
2022/04/27 09:13:38;;;;;;;;;14.75;13.75;;;;;15.82;52.67;99383.53;5015803;28;45520;-59
2022/04/27 09:16:03;;;;;;;;;13.25;12.50;;;;;15.88;51.58;99379.66;5014762;28;45433;-59
2022/04/27 09:21:58;;;;;;;;;13.50;12.50;;;;;16.02;51.95;99382.38;5009460;28;45399;-59
2022/04/27 09:24:24;;;;;;;;;14.75;14.75;;;;;16.07;51.57;99379.47;5013313;28;45445;-59
2022/04/27 09:27:12;;;;;;;;;14.25;12.00;;;;;16.13;51.58;99376.44;4997372;28;45268;-59
2022/04/27 09:29:38;;;;;;;;;14.50;9.50;;;;;16.21;50.86;99376.84;5004394;28;45519;-59
2022/04/27 09:32:06;;;;;;;;;9.50;8.50;;;;;16.27;51.23;99372.00;5014751;28;47004;-60
2022/04/27 09:34:43;;;;;;;;;9.20;9.20;;;;;16.35;50.20;99372.41;5006110;28;45374;-60
2022/04/27 09:37:14;;;;;;;;;11.50;11.50;;;;;16.42;50.30;99371.09;5004293;28;45453;-60
2022/04/27 09:39:39;;;;;;;;;11.50;8.50;;;;;16.48;50.66;99364.53;5009810;28;45501;-59
2022/04/27 09:42:08;;;;;;;;;12.50;11.50;;;;;16.52;49.99;99366.09;5015985;28;45422;-59
2022/04/27 09:57:35;;;;;;;;;15.75;12.75;;;;;17.00;48.94;99354.25;5006635;28;45569;-60
2022/04/27 10:00:01;;;;;;;;;8.50;8.00;;;;;17.05;48.76;99349.50;5009939;28;45454;-60
2022/04/27 10:02:30;;;;;;;;;9.00;8.75;;;;;17.10;47.99;99346.53;5015903;28;45448;-60
2022/04/27 10:04:56;;;;;;;;;8.25;8.25;;;;;17.13;48.09;99346.34;5011441;28;46190;-60
2022/04/27 10:07:23;;;;;;;;;11.20;9.20;;;;;17.17;48.48;99355.00;5025979;28;45476;-60
2022/04/27 10:09:52;;;;;;;;;9.00;8.50;;;;;17.18;47.72;99352.22;5012572;28;45549;-60
2022/04/27 10:12:18;;;;;;;;;12.25;10.25;;;;;17.22;47.65;99345.75;5013950;28;45521;-60
2022/04/27 10:14:44;;;;;;;;;11.50;10.50;;;;;17.30;46.99;99348.78;5010718;28;45361;-59
2022/04/27 10:17:13;;;;;;;;;8.00;8.00;;;;;17.39;46.75;99340.22;5015546;28;45442;-60
2022/04/27 10:19:47;;;;;;;;;8.50;8.25;;;;;17.45;46.75;99331.81;5008869;28;45457;-59
2022/04/27 10:22:34;;;;;;;;;12.00;9.00;;;;;17.52;46.59;99342.94;5014445;28;45656;-59
2022/04/27 10:25:07;;;;;;;;;13.25;11.50;;;;;17.62;46.73;99337.84;5010202;28;47368;-59
2022/04/27 10:27:33;;;;;;;;;11.60;9.60;;;;;17.67;46.52;99333.09;5013035;28;45447;-60
2022/04/27 10:30:02;;;;;;;;;14.00;11.00;;;;;17.70;46.33;99323.09;5008909;28;45633;-59
2022/04/27 10:32:44;;;;;;;;;7.50;7.00;;;;;17.76;46.24;99324.53;5014859;28;45561;-60
2022/04/27 10:35:30;;;;;;;;;15.25;10.00;;;;;17.83;46.45;99323.13;5009345;28;46554;-60
2022/04/27 10:37:58;;;;;;;;;11.20;9.00;;;;;17.90;45.93;99320.94;5011465;28;45409;-59
2022/04/27 10:40:29;;;;;;;;;8.00;8.00;;;;;17.93;45.36;99316.22;5007960;28;45513;-59
2022/04/27 10:43:06;;;;;;;;;8.50;8.25;;;;;17.92;44.81;99314.53;5012794;28;45591;-60
2022/04/27 10:45:47;;;;;;;;;11.50;10.00;;;;;17.87;45.62;99305.13;5010620;28;46111;-59
2022/04/27 10:48:27;;;;;;;;;10.80;8.80;;;;;17.89;45.50;99301.41;5012862;28;45537;-59
2022/04/27 10:51:07;;;;;;;;;9.25;8.50;;;;;17.94;44.45;99312.59;5013780;28;45532;-59
2022/04/27 10:53:49;;;;;;;;;10.00;10.00;;;;;17.93;44.69;99308.22;5008977;28;45460;-59
2022/04/27 10:56:22;;;;;;;;;9.75;9.75;;;;;17.95;44.69;99308.97;5007200;28;46592;-59
2022/04/27 10:58:48;;;;;;;;;9.75;8.75;;;;;17.98;45.40;99298.09;5009566;28;45397;-60
2022/04/27 11:01:23;;;;;;;;;9.00;9.00;;;;;18.04;44.45;99312.84;5011201;28;45470;-59
2022/04/27 11:03:56;;;;;;;;;11.00;8.50;;;;;18.05;44.25;99296.75;5008495;28;45523;-59
2022/04/27 11:06:22;;;;;;;;;8.25;7.50;;;;;18.07;43.36;99300.16;5011569;28;45610;-59
2022/04/27 11:08:47;;;;;;;;;8.60;8.60;;;;;18.10;43.83;99296.41;5013216;28;45428;-59
2022/04/27 11:11:16;;;;;;;;;8.25;7.25;;;;;18.17;43.58;99286.19;5013121;28;45511;-60
2022/04/27 11:13:42;;;;;;;;;8.00;7.50;;;;;18.23;44.07;99286.63;5007607;28;45493;-59
2022/04/27 11:16:13;;;;;;;;;4.00;3.00;;;;;18.30;43.97;99279.88;5013218;28;46430;-60
2022/04/27 11:18:49;;;;;;;;;9.20;8.80;;;;;18.37;44.19;99278.50;5011529;28;45475;-60
2022/04/27 11:21:14;;;;;;;;;8.00;8.00;;;;;18.43;42.41;99286.06;5010325;28;45468;-60
2022/04/27 11:23:39;;;;;;;;;8.00;6.50;;;;;18.43;43.30;99275.41;5008955;28;45314;-59
2022/04/27 11:26:06;;;;;;;;;8.00;8.00;;;;;18.47;42.74;99290.25;5013977;28;45567;-60
2022/04/27 11:28:32;;;;;;;;;10.40;9.40;;;;;18.47;42.41;99284.06;5012979;28;45422;-59
2022/04/27 11:30:57;;;;;;;;;8.50;7.50;;;;;18.50;42.69;99275.84;4994270;28;45493;-60
2022/04/27 11:33:23;;;;;;;;;8.75;8.75;;;;;18.53;42.47;99269.44;5011160;28;45507;-60
2022/04/27 11:35:50;;;;;;;;;8.50;7.75;;;;;18.56;42.74;99266.56;5012567;28;45494;-59
2022/04/27 11:38:19;;;;;;;;;10.80;9.80;;;;;18.62;41.68;99277.66;5009930;28;45429;-59
2022/04/27 11:40:46;;;;;;;;;5.00;5.00;;;;;18.64;39.31;99275.75;5017876;28;45477;-60
2022/04/27 11:43:13;;;;;;;;;9.50;8.00;;;;;18.64;40.63;99267.72;5016720;28;45311;-60
2022/04/27 11:45:38;;;;;;;;;7.75;7.75;;;;;18.65;40.81;99279.28;5005575;28;45560;-60
2022/04/27 11:48:08;;;;;;;;;7.50;7.50;;;;;18.66;41.03;99270.28;5011620;28;45496;-60
2022/04/27 11:50:35;;;;;;;;;10.50;10.25;;;;;18.73;41.90;99268.91;5009709;28;45343;-61
2022/04/27 11:53:03;;;;;;;;;11.00;9.75;;;;;18.81;42.00;99271.88;5011177;28;45438;-59
2022/04/27 11:55:30;;;;;;;;;9.80;7.80;;;;;18.88;40.70;99261.63;5008971;28;45871;-65
2022/04/27 11:57:56;;;;;;;;;10.40;8.40;;;;;18.94;41.08;99270.03;5012206;28;45387;-65
2022/04/27 12:00:24;;;;;;;;;10.25;8.50;;;;;19.01;41.62;99262.44;5013312;28;45580;-65
2022/04/27 12:02:49;;;;;;;;;8.25;7.00;;;;;19.09;41.86;99262.75;5012388;28;45673;-65
2022/04/27 12:05:15;;;;;;;;;8.25;8.25;;;;;19.21;42.06;99256.50;5012525;28;45403;-66
2022/04/27 12:07:47;;;;;;;;;7.00;7.00;;;;;19.35;41.56;99260.81;5012074;28;45479;-65
2022/04/27 12:10:16;;;;;;;;;10.75;8.75;;;;;19.42;40.57;99262.09;5013130;28;45390;-66
2022/04/27 12:12:42;;;;;;;;;7.50;7.00;;;;;19.47;41.23;99257.22;5013356;28;45358;-65
2022/04/27 12:15:11;;;;;;;;;9.00;8.00;;;;;19.50;39.48;99259.72;5007998;28;46149;-64
2022/04/27 12:17:51;;;;;;;;;10.00;7.00;;;;;19.50;40.26;99257.03;5012327;28;45413;-65
2022/04/27 12:20:37;;;;;;;;;10.25;9.00;;;;;19.55;40.22;99257.56;5006488;28;45453;-65
2022/04/27 12:23:25;;;;;;;;;10.50;10.50;;;;;19.59;40.23;99248.34;5006747;28;45546;-64
2022/04/27 12:25:54;;;;;;;;;9.25;8.75;;;;;19.62;40.45;99241.88;5011320;28;46114;-64
2022/04/27 12:28:24;;;;;;;;;7.00;7.00;;;;;19.63;41.19;99238.25;5009508;28;45245;-65
2022/04/27 12:30:56;;;;;;;;;10.25;9.50;;;;;19.70;41.00;99243.03;5012793;28;45591;-65
2022/04/27 12:33:33;;;;;;;;;10.00;10.00;;;;;19.77;41.66;99246.13;4987862;28;45466;-64
2022/04/27 12:39:03;;;;;;;;;8.40;8.00;;;;;19.83;39.71;99242.94;5008942;28;45374;-64
2022/04/27 12:41:43;;;;;;;;;6.50;6.50;;;;;19.88;41.13;99232.75;5015964;28;45490;-64
2022/04/27 12:44:12;;;;;;;;;7.50;7.00;;;;;19.94;40.31;99226.91;5013055;28;45495;-64
2022/04/27 12:47:13;;;;;;;;;9.75;8.75;;;;;20.02;40.86;99212.97;5019631;28;46153;-59
2022/04/27 12:49:40;;;;;;;;;9.40;9.40;;;;;20.14;41.38;99210.19;5014114;28;45480;-59
2022/04/27 12:52:37;;;;;;;;;9.75;8.75;;;;;20.29;41.30;99208.13;5001759;28;45535;-59
2022/04/27 12:55:04;;;;;;;;;9.75;8.50;;;;;20.37;40.59;99208.41;4987912;28;45584;-64
2022/04/27 12:57:54;;;;;;;;;9.50;9.50;;;;;20.40;41.55;99207.31;5001184;28;47630;-64
2022/04/27 13:00:39;;;;;;;;;9.40;8.80;;;;;20.46;40.59;99201.47;5010059;28;45472;-65
2022/04/27 13:03:14;;;;;;;;;8.00;8.00;;;;;20.51;40.71;99201.97;5004180;28;45367;-59
2022/04/27 13:05:52;;;;;;;;;13.25;10.00;;;;;20.51;40.22;99192.09;5015299;28;45493;-59
2022/04/27 13:08:18;;;;;;;;;9.25;8.75;;;;;20.53;40.71;99190.16;5016437;28;46609;-64
2022/04/27 13:13:32;;;;;;;;;10.25;10.00;;;;;20.63;39.95;99197.44;5013438;28;45373;-65
2022/04/27 13:15:58;;;;;;;;;8.25;8.25;;;;;20.66;39.07;99189.16;5016126;28;45423;-64
2022/04/27 13:18:23;;;;;;;;;7.75;7.00;;;;;20.70;38.93;99170.06;5014314;28;46536;-64
2022/04/27 13:20:50;;;;;;;;;7.25;6.50;;;;;20.77;37.78;99173.94;5016439;28;45363;-65
2022/04/27 13:23:16;;;;;;;;;11.00;9.50;;;;;20.85;37.85;99184.88;5013892;28;45404;-64
2022/04/27 13:25:43;;;;;;;;;8.25;7.25;;;;;20.90;38.32;99182.69;5014990;28;45354;-65
2022/04/27 13:28:10;;;;;;;;;10.50;9.75;;;;;20.93;37.81;99165.50;5012724;28;45438;-64
2022/04/27 13:30:36;;;;;;;;;2.40;2.20;;;;;21.04;38.25;99169.97;5015777;28;45411;-65
2022/04/27 13:33:11;;;;;;;;;9.00;7.25;;;;;21.34;35.97;99169.28;5015689;28;45452;-64
2022/04/27 13:35:37;;;;;;;;;7.50;7.00;;;;;21.69;35.25;99167.19;5003587;28;45461;-65
2022/04/27 13:38:05;;;;;;;;;8.00;8.00;;;;;21.94;35.22;99164.09;5012052;28;45560;-65
2022/04/27 13:40:30;;;;;;;;;7.00;7.00;;;;;22.16;35.99;99159.56;5017801;28;45370;-65
2022/04/27 13:42:55;;;;;;;;;7.00;7.00;;;;;22.34;35.22;99147.22;5013723;28;45607;-65
2022/04/27 13:45:21;;;;;;;;;7.00;6.00;;;;;22.57;34.25;99146.06;5014839;28;45532;-65
2022/04/27 13:47:46;;;;;;;;;10.00;8.00;;;;;22.80;35.31;99145.84;5014702;28;45417;-65
2022/04/27 13:50:12;;;;;;;;;8.25;8.00;;;;;22.92;34.30;99148.28;5011583;28;45510;-65
2022/04/27 13:52:39;;;;;;;;;7.20;5.80;;;;;22.99;35.32;99137.81;5012729;28;45524;-65
2022/04/27 13:55:06;;;;;;;;;9.00;7.00;;;;;23.06;34.81;99144.34;4993191;28;45510;-65
2022/04/27 13:57:31;;;;;;;;;10.25;8.50;;;;;23.13;34.93;99136.53;5006226;28;45975;-64
2022/04/27 13:59:56;;;;;;;;;7.50;7.50;;;;;23.22;32.36;99155.41;5010361;28;45438;-65
2022/04/27 14:02:32;;;;;;;;;7.75;7.75;;;;;23.27;34.10;99137.00;5014097;28;45561;-65
2022/04/27 14:05:00;;;;;;;;;9.25;7.25;;;;;23.36;33.21;99126.38;5009940;28;45798;-65
2022/04/27 14:07:27;;;;;;;;;8.80;8.00;;;;;23.46;33.54;99129.94;5011395;28;45482;-65
2022/04/27 14:09:53;;;;;;;;;9.20;7.40;;;;;23.60;33.99;99130.38;5012126;28;45763;-65
2022/04/27 14:15:03;;;;;;;;;5.75;5.75;;;;;24.01;33.72;99141.75;5004038;28;45237;-65
2022/04/27 14:20:12;;;;;;;;;6.20;5.40;;;;;24.20;31.96;99130.06;5011299;28;45471;-65
2022/04/27 14:22:37;;;;;;;;;7.25;7.25;;;;;24.21;31.54;99121.84;5014498;28;45331;-65
2022/04/27 14:25:03;;;;;;;;;9.50;8.25;;;;;24.27;32.53;99118.59;5013708;28;45782;-63
2022/04/27 14:27:38;;;;;;;;;9.00;7.00;;;;;24.36;32.07;99111.44;5014986;28;45441;-66
2022/04/27 14:30:04;;;;;;;;;8.00;8.00;;;;;24.54;32.12;99114.19;5008573;28;45440;-65
2022/04/27 14:32:39;;;;;;;;;7.20;7.20;;;;;24.63;32.54;99124.09;5013884;28;45404;-71
2022/04/27 14:35:06;;;;;;;;;9.50;9.50;;;;;24.70;30.63;99119.78;5008138;28;45871;-65
2022/04/27 14:37:31;;;;;;;;;6.20;6.20;;;;;24.77;30.94;99111.94;5012509;28;45489;-65
2022/04/27 14:39:57;;;;;;;;;8.00;7.25;;;;;24.88;31.33;99109.88;5012871;28;45415;-64
2022/04/27 14:42:22;;;;;;;;;6.75;5.75;;;;;25.03;32.02;99107.53;5014069;28;45524;-65
2022/04/27 14:44:48;;;;;;;;;5.50;5.50;;;;;25.13;32.34;99115.56;5011907;28;45436;-65
2022/04/27 14:47:13;;;;;;;;;8.25;8.25;;;;;25.22;31.33;99110.06;5013405;28;46143;-65
2022/04/27 14:49:39;;;;;;;;;7.75;7.50;;;;;25.21;30.50;99105.69;5013409;28;45539;-65
2022/04/27 14:52:07;;;;;;;;;6.20;6.00;;;;;25.28;31.26;99105.91;5013259;28;45367;-65
2022/04/27 14:54:32;;;;;;;;;8.00;7.25;;;;;25.33;30.84;99104.44;5012512;28;45175;-64
2022/04/27 14:56:57;;;;;;;;;6.25;6.00;;;;;25.36;30.69;99114.91;5012049;28;46008;-65
2022/04/27 14:59:23;;;;;;;;;6.00;6.00;;;;;25.35;29.96;99120.47;5008894;28;45434;-65
2022/04/27 15:01:48;;;;;;;;;4.00;4.00;;;;;25.38;29.54;99107.53;5010612;28;45438;-65
2022/04/27 15:04:14;;;;;;;;;8.75;8.75;;;;;25.37;30.14;99099.56;5007359;28;45517;-65
2022/04/27 15:06:39;;;;;;;;;5.50;5.25;;;;;25.46;29.51;99090.56;5010780;28;46423;-64
2022/04/27 15:09:05;;;;;;;;;8.75;8.75;;;;;25.48;29.86;99101.16;5005835;28;45599;-65
2022/04/27 15:11:31;;;;;;;;;9.00;8.75;;;;;25.52;30.62;99083.66;5011106;28;45458;-64
2022/04/27 15:13:56;;;;;;;;;6.75;6.75;;;;;25.61;30.13;99098.94;5012436;28;45381;-65
2022/04/27 15:16:22;;;;;;;;;7.25;7.25;;;;;25.59;30.13;99091.00;5012976;28;45832;-64
2022/04/27 15:18:47;;;;;;;;;5.00;4.25;;;;;25.58;30.73;99089.28;5008923;28;45485;-65
2022/04/27 15:24:07;;;;;;;;;8.75;8.75;;;;;25.66;29.70;99086.66;5006584;28;45336;-64
2022/04/27 15:29:16;;;;;;;;;7.20;7.20;;;;;25.68;30.49;99090.06;5012806;28;45472;-64
2022/04/27 15:31:42;;;;;;;;;7.00;7.00;;;;;25.73;29.78;99089.59;5008732;28;45776;-64
2022/04/27 15:34:07;;;;;;;;;7.00;7.00;;;;;25.65;30.22;99095.78;5004677;28;45421;-64
2022/04/27 15:36:42;;;;;;;;;10.25;8.50;;;;;25.69;29.82;99102.56;4995623;28;46216;-64
2022/04/27 15:39:08;;;;;;;;;6.40;6.40;;;;;25.73;30.04;99098.56;5004669;28;45413;-64
2022/04/27 15:41:42;;;;;;;;;6.00;6.00;;;;;25.74;30.16;99096.69;5012618;28;45275;-65
2022/04/27 15:44:10;;;;;;;;;6.00;6.00;;;;;25.68;29.59;99086.50;5007774;28;45310;-64
2022/04/27 15:46:36;;;;;;;;;7.60;7.60;;;;;25.64;30.32;99095.94;4995374;28;45560;-64
2022/04/27 15:49:01;;;;;;;;;8.00;6.00;;;;;25.62;29.72;99087.16;5008141;28;45311;-65
2022/04/27 15:51:28;;;;;;;;;7.50;6.75;;;;;25.63;29.20;99088.88;5013577;28;45367;-64
2022/04/27 15:53:53;;;;;;;;;7.00;7.00;;;;;25.58;28.71;99080.34;5008846;28;45509;-64
2022/04/27 15:56:19;;;;;;;;;7.00;6.00;;;;;25.54;29.27;99101.41;4995402;28;47656;-64
2022/04/27 15:58:44;;;;;;;;;4.00;4.00;;;;;25.50;29.05;99100.00;5007067;28;45307;-65
2022/04/27 16:01:10;;;;;;;;;7.50;7.50;;;;;25.44;28.48;99087.16;5013804;28;45471;-64
2022/04/27 16:03:36;;;;;;;;;6.00;5.25;;;;;25.41;29.18;99087.47;5010570;28;45556;-65
2022/04/27 16:06:02;;;;;;;;;9.00;8.00;;;;;25.50;28.20;99110.81;5012372;28;46307;-65
2022/04/27 16:08:38;;;;;;;;;7.80;7.00;;;;;25.54;28.66;99090.59;5011125;28;45528;-65
2022/04/27 16:11:03;;;;;;;;;7.80;6.80;;;;;25.48;27.92;99110.13;4994315;28;45332;-65
2022/04/27 16:13:38;;;;;;;;;5.25;5.25;;;;;25.44;28.58;99111.47;5009343;28;45469;-64
2022/04/27 16:16:04;;;;;;;;;4.80;4.80;;;;;25.43;28.85;99106.22;5015831;28;45582;-65
2022/04/27 16:18:29;;;;;;;;;8.75;7.25;;;;;25.38;27.66;99114.78;5018517;28;45443;-65
2022/04/27 16:23:50;;;;;;;;;9.00;7.00;;;;;25.31;27.49;99109.13;5023880;28;45470;-64
2022/04/27 16:26:16;;;;;;;;;5.80;5.00;;;;;25.34;27.75;99116.06;5017169;28;45533;-65
2022/04/27 16:28:51;;;;;;;;;7.00;7.00;;;;;25.33;28.19;99104.44;5009823;28;45362;-65
2022/04/27 16:31:17;;;;;;;;;7.80;6.60;;;;;25.45;28.55;99109.59;5014355;28;45793;-65
2022/04/27 16:33:42;;;;;;;;;6.00;5.25;;;;;25.48;28.06;99122.78;5014900;28;45459;-65
2022/04/27 16:36:08;;;;;;;;;5.50;5.50;;;;;25.52;28.17;99116.06;5020244;28;45801;-64
2022/04/27 16:38:35;;;;;;;;;3.25;2.75;;;;;25.53;27.47;99105.09;5020167;28;45438;-65
2022/04/27 16:41:01;;;;;;;;;7.00;6.40;;;;;25.51;26.85;99122.47;5015832;28;45532;-64
2022/04/27 16:43:37;;;;;;;;;4.50;4.50;;;;;25.42;25.82;99116.16;4996407;28;45500;-64
2022/04/27 16:46:02;;;;;;;;;5.60;5.60;;;;;25.32;26.75;99110.84;5014458;28;45792;-64
2022/04/27 16:48:28;;;;;;;;;6.00;6.00;;;;;25.26;27.10;99108.78;4993277;28;45452;-65
2022/04/27 16:50:54;;;;;;;;;2.00;2.00;;;;;25.39;27.01;99122.72;5006319;28;45460;-64
2022/04/27 16:53:28;;;;;;;;;5.00;5.00;;;;;25.41;27.04;99110.91;5012821;28;45564;-64
2022/04/27 16:55:54;;;;;;;;;7.00;6.40;;;;;25.42;26.82;99110.75;5015526;28;47506;-64
2022/04/27 16:58:32;;;;;;;;;3.50;3.25;;;;;25.47;27.02;99108.41;5015844;28;45510;-64
2022/04/27 17:01:09;;;;;;;;;6.40;6.40;;;;;25.54;26.88;99105.97;4997145;28;45449;-66
2022/04/27 17:03:36;;;;;;;;;6.25;5.00;;;;;25.49;26.06;99111.81;4984964;28;45555;-66
2022/04/27 17:06:09;;;;;;;;;6.00;5.40;;;;;25.41;26.68;99116.31;4990117;28;47657;-64
2022/04/27 17:08:37;;;;;;;;;7.00;6.80;;;;;25.29;25.79;99118.41;5011678;28;45494;-63
2022/04/27 17:11:03;;;;;;;;;7.60;7.00;;;;;25.18;25.87;99110.53;5014317;28;45465;-64
2022/04/27 17:13:33;;;;;;;;;6.00;5.00;;;;;25.17;26.94;99120.47;5012662;28;45383;-64
2022/04/27 17:15:59;;;;;;;;;5.00;4.80;;;;;25.21;25.98;99115.63;5015735;28;46412;-64
2022/04/27 17:18:25;;;;;;;;;5.80;5.20;;;;;25.23;26.63;99130.66;5011012;28;45533;-64
2022/04/27 17:20:51;;;;;;;;;6.50;6.50;;;;;25.26;26.67;99124.13;5015748;28;45318;-64
2022/04/27 17:23:27;;;;;;;;;7.00;6.00;;;;;25.16;26.40;99132.28;5011287;28;45566;-65
2022/04/27 17:28:47;;;;;;;;;6.40;5.40;;;;;25.00;26.71;99124.00;5003796;28;45315;-64
2022/04/27 17:31:22;;;;;;;;;7.80;6.80;;;;;24.94;26.34;99130.03;5015617;28;45409;-64
2022/04/27 17:33:58;;;;;;;;;5.25;4.50;;;;;24.83;26.21;99124.81;5015703;28;45365;-63
2022/04/27 17:36:24;;;;;;;;;5.00;5.00;;;;;24.70;26.95;99133.25;5014853;28;46142;-64
2022/04/27 17:38:50;;;;;;;;;6.00;5.00;;;;;24.58;26.34;99137.16;5014929;28;45722;-64
2022/04/27 17:41:16;;;;;;;;;7.25;6.00;;;;;24.27;26.67;99145.53;5015755;28;45387;-63
2022/04/27 17:43:42;;;;;;;;;5.00;4.50;;;;;23.80;27.31;99150.00;5010491;28;45447;-63
2022/04/27 17:46:09;;;;;;;;;4.80;4.80;;;;;23.38;27.25;99149.47;5011233;28;46284;-64
2022/04/27 17:48:34;;;;;;;;;6.00;6.00;;;;;23.04;28.38;99145.47;5015259;28;45378;-64
2022/04/27 17:51:00;;;;;;;;;6.00;5.50;;;;;22.75;28.57;99156.16;5015738;28;45461;-64
2022/04/27 17:53:26;;;;;;;;;4.00;4.00;;;;;22.50;29.16;99146.72;4993553;28;45613;-64
2022/04/27 17:56:01;;;;;;;;;7.00;5.50;;;;;22.25;29.07;99164.16;4980700;28;46711;-63
2022/04/27 17:58:29;;;;;;;;;4.00;4.00;;;;;22.05;29.64;99165.03;5008782;28;45483;-64
2022/04/27 18:00:55;;;;;;;;;5.75;5.75;;;;;21.87;29.50;99164.75;5013355;28;45330;-64
2022/04/27 18:03:21;;;;;;;;;4.75;4.75;;;;;21.72;29.77;99168.75;5017264;28;45449;-65
2022/04/27 18:05:57;;;;;;;;;4.00;4.00;;;;;21.57;29.98;99181.63;5018579;28;46185;-64
2022/04/27 18:08:22;;;;;;;;;4.00;3.80;;;;;21.42;30.00;99178.41;5019418;28;45457;-63
2022/04/27 18:10:49;;;;;;;;;8.00;7.00;;;;;21.34;30.81;99180.88;5014935;28;45451;-65
2022/04/27 18:13:15;;;;;;;;;5.00;4.00;;;;;21.23;30.87;99183.59;5014282;28;45555;-63
2022/04/27 18:15:48;;;;;;;;;6.75;5.50;;;;;21.12;31.26;99179.06;5013705;28;45481;-63
2022/04/27 18:18:15;;;;;;;;;6.20;5.40;;;;;21.04;31.02;99191.44;5012262;28;45585;-63
2022/04/27 18:20:54;;;;;;;;;6.00;5.60;;;;;20.94;31.64;99191.34;5015286;28;45441;-64
2022/04/27 18:23:19;;;;;;;;;9.25;8.25;;;;;20.86;31.20;99201.81;5012771;28;45225;-64
2022/04/27 18:25:45;;;;;;;;;5.75;5.00;;;;;20.77;31.54;99205.25;5015267;28;46097;-64
2022/04/27 18:28:20;;;;;;;;;7.50;6.00;;;;;20.69;31.39;99203.19;5014442;28;45427;-64
2022/04/27 18:30:46;;;;;;;;;5.25;5.00;;;;;20.63;31.67;99214.38;4997503;28;45383;-63
2022/04/27 18:33:14;;;;;;;;;3.75;3.00;;;;;20.58;32.41;99205.03;4995783;28;45548;-63
2022/04/27 18:35:41;;;;;;;;;4.75;4.75;;;;;20.51;32.28;99210.00;4986903;28;46604;-65
2022/04/27 18:38:16;;;;;;;;;5.75;5.75;;;;;20.43;32.85;99213.31;5011958;28;45310;-65
2022/04/27 18:40:42;;;;;;;;;7.75;7.00;;;;;20.37;33.22;99213.78;5008292;28;45386;-65
2022/04/27 18:51:37;;;;;;;;;5.25;5.25;;;;;20.01;35.64;99241.56;5002407;28;45405;-65
2022/04/27 18:54:13;;;;;;;;;7.25;7.25;;;;;19.92;35.20;99239.59;4989638;28;45498;-65
2022/04/27 18:56:39;;;;;;;;;6.50;6.00;;;;;19.82;36.30;99244.78;5014864;28;46709;-65
2022/04/27 18:59:13;;;;;;;;;7.00;5.75;;;;;19.75;36.60;99254.25;4990073;28;45441;-64
2022/04/27 19:01:43;;;;;;;;;9.50;8.00;;;;;19.66;36.77;99257.59;5014393;28;45512;-65
2022/04/27 19:04:09;;;;;;;;;7.00;7.00;;;;;19.59;37.12;99260.88;4990979;28;45347;-65
2022/04/27 19:06:38;;;;;;;;;5.50;4.75;;;;;19.52;37.14;99271.16;4972184;28;46235;-65
2022/04/27 19:09:10;;;;;;;;;7.80;6.00;;;;;19.45;36.94;99269.88;5010449;28;45488;-65
2022/04/27 19:11:37;;;;;;;;;11.25;9.00;;;;;19.40;37.64;99277.41;5014430;28;45418;-65
2022/04/27 19:14:12;;;;;;;;;8.25;8.25;;;;;19.36;37.74;99283.94;4992129;28;45396;-65